createdAt,value
2018-06-24T00:00:51.236Z,12.90
2018-06-24T00:03:49.299Z,12.90
2018-06-24T00:06:47.237Z,12.90
2018-06-24T00:09:45.277Z,12.90
2018-06-24T00:12:43.402Z,12.90
2018-06-24T00:15:41.283Z,12.90
2018-06-24T00:18:39.141Z,12.90
2018-06-24T00:21:37.001Z,12.90
2018-06-24T00:24:34.755Z,12.80
2018-06-24T00:27:32.767Z,12.90
2018-06-24T00:30:30.395Z,12.80
2018-06-24T00:33:28.394Z,12.80
2018-06-24T00:36:26.282Z,12.80
2018-06-24T00:39:24.205Z,12.80
2018-06-24T00:42:21.912Z,12.70
2018-06-24T00:45:20.018Z,12.70
2018-06-24T00:48:18.220Z,12.80
2018-06-24T00:51:16.148Z,12.80
2018-06-24T00:54:14.326Z,12.80
2018-06-24T00:57:12.255Z,12.80
2018-06-24T01:00:23.285Z,12.70
2018-06-24T01:03:21.183Z,12.70
2018-06-24T01:06:19.254Z,12.70
2018-06-24T01:09:17.044Z,12.70
2018-06-24T01:12:15.086Z,12.60
2018-06-24T01:15:12.846Z,12.60
2018-06-24T01:18:10.761Z,12.50
2018-06-24T01:21:08.744Z,12.50
2018-06-24T01:24:07.468Z,12.50
2018-06-24T01:27:05.451Z,12.60
2018-06-24T01:30:03.405Z,12.60
2018-06-24T01:33:01.582Z,12.60
2018-06-24T01:35:59.498Z,12.60
2018-06-24T01:41:47.383Z,12.60
2018-06-24T01:44:45.140Z,12.60
2018-06-24T01:47:42.900Z,12.60
2018-06-24T01:50:40.920Z,12.30
2018-06-24T01:53:38.838Z,12.30
2018-06-24T01:56:36.785Z,12.20
2018-06-24T01:59:34.839Z,12.20
2018-06-24T02:02:32.634Z,12.30
2018-06-24T02:05:31.654Z,12.30
2018-06-24T02:08:29.522Z,12.30
2018-06-24T02:11:27.552Z,12.30
2018-06-24T02:14:24.750Z,12.30
2018-06-24T02:17:22.784Z,12.40
2018-06-24T02:20:20.020Z,12.30
2018-06-24T02:23:18.014Z,12.30
2018-06-24T02:26:15.997Z,12.30
2018-06-24T02:29:13.992Z,12.20
2018-06-24T02:32:12.079Z,12.20
2018-06-24T02:35:10.013Z,12.20
2018-06-24T02:38:07.884Z,12.30
2018-06-24T02:41:06.601Z,12.40
2018-06-24T02:44:03.958Z,12.40
2018-06-24T02:47:02.080Z,12.40
2018-06-24T02:49:59.978Z,12.40
2018-06-24T02:52:58.019Z,12.50
2018-06-24T02:55:56.076Z,12.60
2018-06-24T02:58:53.675Z,12.70
2018-06-24T03:01:51.665Z,12.70
2018-06-24T03:04:49.697Z,12.70
2018-06-24T03:07:47.750Z,12.80
2018-06-24T03:10:45.968Z,12.80
2018-06-24T03:13:44.101Z,12.80
2018-06-24T03:19:32.181Z,13.00
2018-06-24T03:22:30.112Z,13.10
2018-06-24T03:25:27.919Z,13.10
2018-06-24T03:28:25.756Z,13.00
2018-06-24T03:31:23.377Z,13.00
2018-06-24T03:34:20.527Z,13.00
2018-06-24T03:37:17.784Z,12.90
2018-06-24T03:40:17.384Z,12.90
2018-06-24T03:43:15.421Z,13.00
2018-06-24T03:46:13.364Z,13.00
2018-06-24T03:49:11.610Z,13.00
2018-06-24T03:52:09.550Z,13.10
2018-06-24T03:55:07.382Z,13.10
2018-06-24T04:00:55.915Z,13.10
2018-06-24T04:03:53.983Z,13.00
2018-06-24T04:06:51.802Z,13.00
2018-06-24T04:09:49.758Z,12.90
2018-06-24T04:12:47.632Z,13.00
2018-06-24T04:15:45.723Z,12.90
2018-06-24T04:18:48.666Z,12.90
2018-06-24T04:21:46.672Z,12.80
2018-06-24T04:24:43.881Z,12.80
2018-06-24T04:27:42.095Z,12.70
2018-06-24T04:30:41.546Z,12.70
2018-06-24T04:33:39.980Z,12.70
2018-06-24T04:36:38.074Z,12.80
2018-06-24T04:39:35.984Z,12.90
2018-06-24T04:42:33.869Z,13.00
2018-06-24T04:45:31.646Z,12.90
2018-06-24T04:48:29.356Z,13.10
2018-06-24T04:51:27.077Z,13.20
2018-06-24T04:54:24.843Z,13.30
2018-06-24T04:57:22.820Z,13.40
2018-06-24T05:00:20.389Z,13.50
2018-06-24T05:03:18.367Z,13.60
2018-06-24T05:06:16.147Z,13.60
2018-06-24T05:09:13.994Z,13.70
2018-06-24T05:12:11.994Z,13.80
2018-06-24T05:15:09.835Z,13.90
2018-06-24T05:18:07.741Z,14.00
2018-06-24T05:21:05.816Z,14.10
2018-06-24T05:24:03.693Z,14.20
2018-06-24T05:27:01.577Z,14.30
2018-06-24T05:29:59.621Z,14.40
2018-06-24T05:32:58.642Z,14.60
2018-06-24T05:35:56.828Z,14.70
2018-06-24T05:38:54.714Z,14.90
2018-06-24T05:41:52.802Z,15.00
2018-06-24T05:44:50.730Z,15.10
2018-06-24T05:47:48.610Z,15.10
2018-06-24T05:50:46.428Z,15.20
2018-06-24T05:53:44.162Z,15.30
2018-06-24T05:56:42.147Z,15.40
2018-06-24T05:59:40.234Z,15.50
2018-06-24T06:02:38.287Z,15.60
2018-06-24T06:05:36.715Z,15.70
2018-06-24T06:08:34.107Z,15.70
2018-06-24T06:11:32.129Z,15.90
2018-06-24T06:14:29.284Z,16.00
2018-06-24T06:17:27.465Z,16.10
2018-06-24T06:20:25.491Z,16.10
2018-06-24T06:23:23.652Z,16.30
2018-06-24T06:26:20.979Z,16.50
2018-06-24T06:29:18.947Z,16.70
2018-06-24T06:32:17.047Z,17.00
2018-06-24T06:35:15.188Z,17.10
2018-06-24T06:38:13.260Z,17.20
2018-06-24T06:41:11.397Z,17.30
2018-06-24T06:44:09.408Z,17.40
2018-06-24T06:47:08.368Z,17.50
2018-06-24T06:50:06.360Z,17.70
2018-06-24T06:53:04.263Z,17.80
2018-06-24T06:56:01.537Z,18.20
2018-06-24T06:58:59.805Z,18.40
2018-06-24T07:01:57.585Z,18.10
2018-06-24T07:04:55.692Z,19.10
2018-06-24T07:07:53.503Z,20.30
2018-06-24T07:10:51.410Z,21.10
2018-06-24T07:13:50.267Z,22.00
2018-06-24T07:16:47.985Z,22.20
2018-06-24T07:19:45.665Z,21.50
2018-06-24T07:22:43.455Z,21.60
2018-06-24T07:25:41.190Z,22.20
2018-06-24T07:28:39.053Z,22.40
2018-06-24T07:31:37.031Z,22.00
2018-06-24T07:34:35.024Z,22.20
2018-06-24T07:37:32.970Z,21.80
2018-06-24T07:40:30.966Z,21.60
2018-06-24T07:43:29.019Z,22.00
2018-06-24T07:46:26.935Z,22.90
2018-06-24T07:49:24.119Z,23.10
2018-06-24T07:52:22.078Z,22.40
2018-06-24T07:55:19.301Z,22.60
2018-06-24T07:58:17.292Z,22.40
2018-06-24T08:01:14.413Z,22.60
2018-06-24T08:04:12.354Z,23.10
2018-06-24T08:07:09.607Z,22.80
2018-06-24T08:10:08.543Z,23.60
2018-06-24T08:13:06.423Z,23.20
2018-06-24T08:16:04.572Z,23.00
2018-06-24T08:19:02.476Z,23.00
2018-06-24T08:22:01.467Z,23.90
2018-06-24T08:24:59.293Z,23.10
2018-06-24T08:27:57.447Z,23.90
2018-06-24T08:30:54.759Z,24.10
2018-06-24T08:33:52.231Z,24.00
2018-06-24T08:37:05.336Z,24.30
2018-06-24T08:40:03.364Z,24.50
2018-06-24T08:43:01.310Z,24.00
2018-06-24T08:45:59.458Z,23.30
2018-06-24T08:48:57.390Z,23.00
2018-06-24T08:51:55.753Z,23.10
2018-06-24T08:54:53.632Z,23.90
2018-06-24T08:57:51.419Z,23.30
2018-06-24T09:00:49.032Z,24.30
2018-06-24T09:03:47.120Z,24.20
2018-06-24T09:06:45.221Z,24.30
2018-06-24T09:09:42.418Z,24.20
2018-06-24T09:12:40.599Z,22.40
2018-06-24T09:15:38.821Z,21.50
2018-06-24T09:18:36.674Z,22.00
2018-06-24T09:21:34.753Z,23.10
2018-06-24T09:24:32.514Z,22.40
2018-06-24T09:27:30.193Z,21.40
2018-06-24T09:30:28.184Z,20.90
2018-06-24T09:33:26.078Z,20.40
2018-06-24T09:36:24.093Z,19.90
2018-06-24T09:39:23.059Z,20.80
2018-06-24T09:42:21.122Z,22.20
2018-06-24T09:45:18.718Z,21.30
2018-06-24T09:48:16.433Z,20.80
2018-06-24T09:51:13.896Z,21.30
2018-06-24T09:54:11.114Z,20.70
2018-06-24T09:57:10.363Z,20.30
2018-06-24T10:00:08.283Z,19.80
2018-06-24T10:03:06.128Z,19.50
2018-06-24T10:06:03.821Z,19.70
2018-06-24T10:09:01.499Z,19.60
2018-06-24T10:11:59.303Z,20.00
2018-06-24T10:14:57.220Z,19.70
2018-06-24T10:17:54.464Z,19.80
2018-06-24T10:20:52.287Z,19.70
2018-06-24T10:23:50.283Z,20.10
2018-06-24T10:26:48.300Z,19.50
2018-06-24T10:29:46.210Z,19.50
2018-06-24T10:32:44.283Z,19.00
2018-06-24T10:35:42.008Z,18.80
2018-06-24T10:38:39.824Z,18.60
2018-06-24T10:41:38.033Z,18.70
2018-06-24T10:44:36.166Z,18.90
2018-06-24T10:47:35.140Z,18.80
2018-06-24T10:50:33.407Z,19.20
2018-06-24T10:53:31.565Z,19.30
2018-06-24T10:56:29.314Z,19.40
2018-06-24T10:59:27.153Z,19.50
2018-06-24T11:02:25.252Z,19.20
2018-06-24T11:05:23.228Z,19.00
2018-06-24T11:08:21.124Z,19.10
2018-06-24T11:11:19.068Z,19.20
2018-06-24T11:14:17.097Z,19.80
2018-06-24T11:17:15.070Z,20.30
2018-06-24T11:20:13.010Z,20.80
2018-06-24T11:23:10.920Z,21.00
2018-06-24T11:26:08.776Z,20.80
2018-06-24T11:29:06.951Z,20.00
2018-06-24T11:32:04.965Z,19.20
2018-06-24T11:35:03.403Z,19.50
2018-06-24T11:38:00.711Z,20.00
2018-06-24T11:40:58.728Z,20.20
2018-06-24T11:43:56.886Z,19.90
2018-06-24T11:46:54.911Z,19.80
2018-06-24T11:49:52.982Z,19.50
2018-06-24T11:52:50.210Z,19.40
2018-06-24T11:55:48.000Z,19.30
2018-06-24T11:58:46.084Z,19.40
2018-06-24T12:01:43.377Z,19.60
2018-06-24T12:04:41.127Z,19.90
2018-06-24T12:07:39.290Z,20.10
2018-06-24T12:10:39.296Z,21.20
2018-06-24T12:13:36.938Z,21.50
2018-06-24T12:16:35.139Z,22.30
2018-06-24T12:19:32.883Z,22.20
2018-06-24T12:22:30.859Z,22.10
2018-06-24T12:25:29.127Z,21.50
2018-06-24T12:28:27.685Z,20.30
2018-06-24T12:31:33.583Z,20.00
2018-06-24T12:34:31.340Z,19.90
2018-06-24T12:37:29.095Z,19.80
2018-06-24T12:40:32.923Z,19.50
2018-06-24T12:43:31.035Z,19.90
2018-06-24T12:46:29.008Z,20.20
2018-06-24T12:49:27.062Z,20.30
2018-06-24T12:52:25.801Z,21.20
2018-06-24T12:55:22.907Z,22.10
2018-06-24T12:58:21.131Z,23.00
2018-06-24T13:01:18.890Z,23.80
2018-06-24T13:04:16.844Z,23.40
2018-06-24T13:07:14.587Z,22.00
2018-06-24T13:13:02.235Z,20.40
2018-06-24T13:16:00.019Z,20.50
2018-06-24T13:18:57.857Z,20.50
2018-06-24T13:21:55.821Z,20.30
2018-06-24T13:24:53.640Z,19.90
2018-06-24T13:27:51.483Z,20.00
2018-06-24T13:30:49.674Z,20.20
2018-06-24T13:33:47.204Z,20.60
2018-06-24T13:36:46.012Z,20.70
2018-06-24T13:39:44.120Z,21.10
2018-06-24T13:42:43.160Z,21.90
2018-06-24T13:48:31.342Z,20.60
2018-06-24T13:51:28.770Z,20.10
2018-06-24T13:54:26.764Z,19.90
2018-06-24T13:57:24.981Z,19.70
2018-06-24T14:00:23.087Z,19.70
2018-06-24T14:03:21.053Z,20.10
2018-06-24T14:06:18.515Z,20.30
2018-06-24T14:09:16.115Z,20.30
2018-06-24T14:12:17.625Z,20.30
2018-06-24T14:15:16.378Z,20.10
2018-06-24T14:18:14.025Z,19.90
2018-06-24T14:21:11.695Z,20.00
2018-06-24T14:24:09.658Z,20.40
2018-06-24T14:27:07.610Z,20.20
2018-06-24T14:30:05.462Z,20.20
2018-06-24T14:33:03.646Z,20.10
2018-06-24T14:36:01.454Z,19.90
2018-06-24T14:38:59.317Z,19.80
2018-06-24T14:41:57.277Z,19.70
2018-06-24T14:44:55.312Z,19.50
2018-06-24T14:47:53.294Z,19.50
2018-06-24T14:50:51.147Z,19.80
2018-06-24T14:53:49.315Z,20.00
2018-06-24T14:56:46.629Z,20.50
2018-06-24T14:59:44.675Z,20.90
2018-06-24T15:02:48.042Z,21.20
2018-06-24T15:05:45.847Z,21.30
2018-06-24T15:08:43.914Z,21.80
2018-06-24T15:11:41.018Z,21.50
2018-06-24T15:14:38.975Z,21.30
2018-06-24T15:17:37.022Z,21.00
2018-06-24T15:20:34.184Z,21.10
2018-06-24T15:23:32.083Z,21.10
2018-06-24T15:26:30.099Z,21.20
2018-06-24T15:29:27.963Z,20.70
2018-06-24T15:32:25.834Z,20.40
2018-06-24T15:35:24.039Z,20.70
2018-06-24T15:38:22.041Z,21.00
2018-06-24T15:41:20.039Z,20.40
2018-06-24T15:44:18.180Z,20.30
2018-06-24T15:47:16.228Z,20.10
2018-06-24T15:50:13.897Z,20.20
2018-06-24T15:53:11.752Z,20.60
2018-06-24T15:56:09.562Z,20.70
2018-06-24T15:59:07.522Z,20.60
2018-06-24T16:02:05.772Z,20.70
2018-06-24T16:05:03.331Z,20.60
2018-06-24T16:08:01.046Z,20.10
2018-06-24T16:10:58.875Z,20.40
2018-06-24T16:13:56.261Z,20.50
2018-06-24T16:19:44.045Z,20.80
2018-06-24T16:22:41.736Z,20.20
2018-06-24T16:25:39.825Z,19.90
2018-06-24T16:28:37.767Z,20.00
2018-06-24T16:31:35.923Z,20.10
2018-06-24T16:34:33.559Z,20.40
2018-06-24T16:37:31.439Z,20.50
2018-06-24T16:40:30.447Z,20.70
2018-06-24T16:43:28.135Z,20.80
2018-06-24T16:46:25.972Z,21.20
2018-06-24T16:49:24.006Z,21.20
2018-06-24T16:52:22.004Z,20.90
2018-06-24T16:55:19.764Z,20.30
2018-06-24T16:58:17.868Z,20.00
2018-06-24T17:01:14.994Z,19.90
2018-06-24T17:04:12.759Z,19.80
2018-06-24T17:07:11.773Z,19.90
2018-06-24T17:10:09.644Z,19.90
2018-06-24T17:13:06.824Z,19.90
2018-06-24T17:16:04.945Z,19.50
2018-06-24T17:19:02.967Z,19.50
2018-06-24T17:22:00.852Z,19.40
2018-06-24T17:24:58.653Z,19.20
2018-06-24T17:27:57.623Z,19.10
2018-06-24T17:33:45.705Z,19.00
2018-06-24T17:36:44.920Z,18.90
2018-06-24T17:39:42.872Z,18.90
2018-06-24T17:42:41.799Z,19.00
2018-06-24T17:48:29.478Z,19.00
2018-06-24T17:51:27.358Z,19.10
2018-06-24T17:54:24.558Z,19.00
2018-06-24T17:57:22.634Z,18.90
2018-06-24T18:00:20.464Z,18.80
2018-06-24T18:03:18.359Z,18.90
2018-06-24T18:06:16.342Z,18.80
2018-06-24T18:09:14.148Z,18.90
2018-06-24T18:12:12.182Z,19.00
2018-06-24T18:15:10.263Z,18.80
2018-06-24T18:18:08.127Z,18.80
2018-06-24T18:21:06.103Z,18.70
2018-06-24T18:24:03.870Z,18.60
2018-06-24T18:27:01.774Z,18.60
2018-06-24T18:29:59.902Z,18.50
2018-06-24T18:32:57.865Z,18.40
2018-06-24T18:35:55.899Z,18.30
2018-06-24T18:38:53.703Z,18.20
2018-06-24T18:41:51.667Z,18.20
2018-06-24T18:44:49.588Z,18.20
2018-06-24T18:47:47.614Z,18.20
2018-06-24T18:50:45.712Z,18.10
2018-06-24T18:53:42.852Z,18.10
2018-06-24T18:56:40.808Z,18.00
2018-06-24T18:59:38.851Z,18.10
2018-06-24T19:02:36.670Z,18.20
2018-06-24T19:05:34.544Z,18.20
2018-06-24T19:08:32.266Z,18.20
2018-06-24T19:11:30.190Z,18.20
2018-06-24T19:14:28.125Z,18.20
2018-06-24T19:17:26.170Z,18.20
2018-06-24T19:20:24.050Z,18.20
2018-06-24T19:23:21.864Z,18.20
2018-06-24T19:26:19.689Z,18.10
2018-06-24T19:29:17.716Z,18.00
2018-06-24T19:32:15.605Z,17.90
2018-06-24T19:38:03.582Z,17.80
2018-06-24T19:41:01.282Z,17.70
2018-06-24T19:43:59.470Z,17.70
2018-06-24T19:46:57.531Z,17.60
2018-06-24T19:49:54.822Z,17.40
2018-06-24T19:52:52.910Z,17.40
2018-06-24T19:55:51.127Z,17.40
2018-06-24T19:58:49.046Z,17.40
2018-06-24T20:01:46.872Z,17.40
2018-06-24T20:04:44.911Z,17.30
2018-06-24T20:07:43.067Z,17.30
2018-06-24T20:10:40.953Z,17.20
2018-06-24T20:13:38.723Z,17.10
2018-06-24T20:19:26.433Z,17.10
2018-06-24T20:22:24.358Z,17.10
2018-06-24T20:25:22.289Z,17.00
2018-06-24T20:28:19.593Z,17.00
2018-06-24T20:31:17.337Z,17.00
2018-06-24T20:34:15.254Z,16.90
2018-06-24T20:37:13.419Z,16.80
2018-06-24T20:43:01.092Z,16.60
2018-06-24T20:45:59.145Z,16.50
2018-06-24T20:48:58.013Z,16.60
2018-06-24T20:51:55.668Z,16.60
2018-06-24T20:54:53.646Z,16.50
2018-06-24T20:57:51.879Z,16.40
2018-06-24T21:00:49.700Z,16.30
2018-06-24T21:03:48.507Z,16.30
2018-06-24T21:06:46.559Z,16.20
2018-06-24T21:09:44.693Z,16.10
2018-06-24T21:12:42.761Z,16.10
2018-06-24T21:15:40.660Z,16.00
2018-06-24T21:18:38.489Z,16.00
2018-06-24T21:21:36.506Z,16.00
2018-06-24T21:24:40.508Z,15.90
2018-06-24T21:27:38.477Z,15.90
2018-06-24T21:30:36.640Z,15.90
2018-06-24T21:33:34.241Z,15.90
2018-06-24T21:36:33.128Z,15.90
2018-06-24T21:39:30.778Z,15.90
2018-06-24T21:42:28.824Z,15.80
2018-06-24T21:45:26.932Z,15.70
2018-06-24T21:48:24.649Z,15.60
2018-06-24T21:51:22.606Z,15.60
2018-06-24T21:54:20.583Z,15.70
2018-06-24T21:57:18.432Z,15.60
2018-06-24T22:00:17.306Z,15.60
2018-06-24T22:03:15.154Z,15.50
2018-06-24T22:06:12.963Z,15.50
2018-06-24T22:12:24.002Z,15.30
2018-06-24T22:15:22.085Z,15.20
2018-06-24T22:18:19.286Z,15.20
2018-06-24T22:21:16.400Z,15.20
2018-06-24T22:27:04.474Z,15.10
2018-06-24T22:30:01.678Z,15.10
2018-06-24T22:32:58.881Z,15.10
2018-06-24T22:35:56.908Z,15.20
2018-06-24T22:38:54.907Z,15.20
2018-06-24T22:41:53.115Z,15.00
2018-06-24T22:44:51.176Z,14.90
2018-06-24T22:47:49.027Z,14.80
2018-06-24T22:50:46.934Z,14.80
2018-06-24T22:53:46.095Z,14.70
2018-06-24T22:56:44.025Z,14.70
2018-06-24T22:59:53.916Z,14.60
2018-06-24T23:02:52.958Z,14.60
2018-06-24T23:05:50.777Z,14.60
2018-06-24T23:08:48.580Z,14.60
2018-06-24T23:11:46.419Z,14.50
2018-06-24T23:14:44.465Z,14.40
2018-06-24T23:17:42.305Z,14.40
2018-06-24T23:20:40.877Z,14.40
2018-06-24T23:23:38.189Z,14.40
2018-06-24T23:26:36.117Z,14.30
2018-06-24T23:29:35.065Z,14.30
2018-06-24T23:32:33.183Z,14.30
2018-06-24T23:35:31.318Z,14.20
2018-06-24T23:38:29.198Z,14.20
2018-06-24T23:41:27.283Z,14.20
2018-06-24T23:44:25.388Z,14.30
2018-06-24T23:47:23.309Z,14.30
2018-06-24T23:50:21.292Z,14.30
2018-06-24T23:53:19.267Z,14.30
2018-06-24T23:56:17.056Z,14.30
2018-06-24T23:59:14.680Z,14.20
